PWSweather.com
Personal Weather Stations
Station Observations

LlefiĆ BadalonaES

Lat: 41.44, Lon: 2.2175

Elevation: 213.254

Station Type: oregon WMR918

http://www.estacionmeteorologicabadalonallefia.com

Latest ConditionsUpdated 5:25:37 AM GMT+01:01 Sunday, Nov 23, 2014
Currently Today's Max Today's Min Today's Average
Temperature 60.3°F15.7°C 62.1°F16.7°C 60.3°F15.7°C 61.5°F16.4°C
Dew Point 56.1°F13.4°C 59.4°F15.2°C 56.1°F13.4°C 58.3°F14.6°C
Winds 6.0 mph NW9.7 kmh NW 8.0 mph NW12.9 kmh NW - 6.1 mph 9.8 kmh
Wind Gusts 10.5 mph16.9 kmh 14.2 mph22.9 kmh - -
Humidity 86% 91% 86% 89%
Pressure 30.03 in1016.9 mb 30.06 in1017.9 mb 30.03 in1016.9 mb -
Hour Temp Dew Point Humidity Winds Wind Gusts Pressure Precip Precip Rate Daily Precip Total
05:25 AM 60.3°F15.7°C 56.1°F13.4°C 86% 6.0 mph NW9.7 kmh NW 10.5 mph16.9 kmh 30.03 in1016.9 mb 0.00 in0.0 mm 0.00 in/hr0.0 mm/hr 0.00 in0.0 mm
05:15 AM 60.6°F15.9°C 56.4°F13.6°C 86% 4.6 mph NW7.4 kmh NW 7.6 mph12.2 kmh 30.03 in1016.9 mb 0.00 in0.0 mm 0.00 in/hr0.0 mm/hr 0.00 in0.0 mm
05:05 AM 61.0°F16.1°C 56.8°F13.8°C 86% 5.2 mph NW8.4 kmh NW 8.1 mph13.0 kmh 30.06 in1017.9 mb 0.00 in0.0 mm 0.00 in/hr0.0 mm/hr 0.00 in0.0 mm
04:55 AM 61.0°F16.1°C 56.8°F13.8°C 86% 6.1 mph NW9.8 kmh NW 10.7 mph17.2 kmh 30.06 in1017.9 mb 0.00 in0.0 mm 0.00 in/hr0.0 mm/hr 0.00 in0.0 mm
04:45 AM 60.8°F16.0°C 56.6°F13.7°C 86% 7.0 mph NW11.3 kmh NW 10.7 mph17.2 kmh 30.06 in1017.9 mb 0.00 in0.0 mm 0.00 in/hr0.0 mm/hr 0.00 in0.0 mm
04:35 AM 61.0°F16.1°C 56.8°F13.8°C 86% 6.2 mph NW10.0 kmh NW 10.7 mph17.2 kmh 30.06 in1017.9 mb 0.00 in0.0 mm 0.00 in/hr0.0 mm/hr 0.00 in0.0 mm
04:25 AM 61.0°F16.1°C 57.4°F14.1°C 88% 6.5 mph NW10.5 kmh NW 9.9 mph15.9 kmh 30.06 in1017.9 mb 0.00 in0.0 mm 0.00 in/hr0.0 mm/hr 0.00 in0.0 mm
04:15 AM 61.0°F16.1°C 57.4°F14.1°C 88% 6.6 mph NW10.6 kmh NW 10.7 mph17.2 kmh 30.06 in1017.9 mb 0.00 in0.0 mm 0.00 in/hr0.0 mm/hr 0.00 in0.0 mm
04:05 AM 61.0°F16.1°C 57.8°F14.3°C 89% 6.4 mph NW10.3 kmh NW 8.7 mph14.0 kmh 30.06 in1017.9 mb 0.00 in0.0 mm 0.00 in/hr0.0 mm/hr 0.00 in0.0 mm
03:55 AM 61.3°F16.3°C 58.1°F14.5°C 89% 4.4 mph NW7.1 kmh NW 6.4 mph10.3 kmh 30.06 in1017.9 mb 0.00 in0.0 mm 0.00 in/hr0.0 mm/hr 0.00 in0.0 mm
03:45 AM 61.3°F16.3°C 58.1°F14.5°C 89% 6.0 mph NW9.7 kmh NW 8.1 mph13.0 kmh 30.06 in1017.9 mb 0.00 in0.0 mm 0.00 in/hr0.0 mm/hr 0.00 in0.0 mm
03:35 AM 61.5°F16.4°C 58.6°F14.8°C 90% 4.5 mph NW7.2 kmh NW 7.0 mph11.3 kmh 30.06 in1017.9 mb 0.00 in0.0 mm 0.00 in/hr0.0 mm/hr 0.00 in0.0 mm
03:25 AM 61.7°F16.5°C 58.7°F14.8°C 90% 3.9 mph NNW6.3 kmh NNW 8.1 mph13.0 kmh 30.06 in1017.9 mb 0.00 in0.0 mm 0.00 in/hr0.0 mm/hr 0.00 in0.0 mm
03:15 AM 61.7°F16.5°C 58.7°F14.8°C 90% 5.2 mph NW8.4 kmh NW 8.1 mph13.0 kmh 30.06 in1017.9 mb 0.00 in0.0 mm 0.00 in/hr0.0 mm/hr 0.00 in0.0 mm
03:05 AM 61.8°F16.6°C 58.8°F14.9°C 90% 6.3 mph NW10.1 kmh NW 8.1 mph13.0 kmh 30.06 in1017.9 mb 0.00 in0.0 mm 0.00 in/hr0.0 mm/hr 0.00 in0.0 mm
02:55 AM 61.8°F16.6°C 58.8°F14.9°C 90% 6.1 mph NW9.8 kmh NW 8.1 mph13.0 kmh 30.06 in1017.9 mb 0.00 in0.0 mm 0.00 in/hr0.0 mm/hr 0.00 in0.0 mm
02:45 AM 61.9°F16.6°C 58.6°F14.8°C 89% 6.2 mph NW10.0 kmh NW 10.5 mph16.9 kmh 30.06 in1017.9 mb 0.00 in0.0 mm 0.00 in/hr0.0 mm/hr 0.00 in0.0 mm
02:35 AM 61.9°F16.6°C 58.6°F14.8°C 89% 4.9 mph NW7.9 kmh NW 9.9 mph15.9 kmh 30.06 in1017.9 mb 0.00 in0.0 mm 0.00 in/hr0.0 mm/hr 0.00 in0.0 mm
02:25 AM 62.1°F16.7°C 58.8°F14.9°C 89% 5.7 mph NW9.2 kmh NW 11.3 mph18.2 kmh 30.06 in1017.9 mb 0.00 in0.0 mm 0.00 in/hr0.0 mm/hr 0.00 in0.0 mm
02:15 AM 62.1°F16.7°C 58.8°F14.9°C 89% 6.6 mph NW10.6 kmh NW 10.7 mph17.2 kmh 30.06 in1017.9 mb 0.00 in0.0 mm 0.00 in/hr0.0 mm/hr 0.00 in0.0 mm
02:05 AM 61.9°F16.6°C 58.9°F14.9°C 90% 7.3 mph NW11.7 kmh NW 10.7 mph17.2 kmh 30.06 in1017.9 mb 0.00 in0.0 mm 0.00 in/hr0.0 mm/hr 0.00 in0.0 mm
01:55 AM 61.9°F16.6°C 58.9°F14.9°C 90% 7.5 mph NW12.1 kmh NW 11.3 mph18.2 kmh 30.06 in1017.9 mb 0.00 in0.0 mm 0.00 in/hr0.0 mm/hr 0.00 in0.0 mm
01:45 AM 61.7°F16.5°C 58.7°F14.8°C 90% 6.4 mph NW10.3 kmh NW 10.7 mph17.2 kmh 30.06 in1017.9 mb 0.00 in0.0 mm 0.00 in/hr0.0 mm/hr 0.00 in0.0 mm
01:35 AM 61.7°F16.5°C 59.0°F15.0°C 91% 7.8 mph NW12.6 kmh NW 13.1 mph21.1 kmh 30.06 in1017.9 mb 0.00 in0.0 mm 0.00 in/hr0.0 mm/hr 0.00 in0.0 mm
01:25 AM 61.7°F16.5°C 59.0°F15.0°C 91% 7.1 mph NW11.4 kmh NW 13.1 mph21.1 kmh 30.06 in1017.9 mb 0.00 in0.0 mm 0.00 in/hr0.0 mm/hr 0.00 in0.0 mm
01:15 AM 61.7°F16.5°C 59.0°F15.0°C 91% 8.0 mph NW12.9 kmh NW 11.3 mph18.2 kmh 30.06 in1017.9 mb 0.00 in0.0 mm 0.00 in/hr0.0 mm/hr 0.00 in0.0 mm
01:05 AM 61.7°F16.5°C 59.0°F15.0°C 91% 7.7 mph NW12.4 kmh NW 14.2 mph22.9 kmh 30.06 in1017.9 mb 0.00 in0.0 mm 0.00 in/hr0.0 mm/hr 0.00 in0.0 mm
12:55 AM 61.9°F16.6°C 59.2°F15.1°C 91% 5.8 mph NW9.3 kmh NW 10.7 mph17.2 kmh 30.06 in1017.9 mb 0.00 in0.0 mm 0.00 in/hr0.0 mm/hr 0.00 in0.0 mm
12:45 AM 61.9°F16.6°C 59.2°F15.1°C 91% 7.0 mph NW11.3 kmh NW 10.5 mph16.9 kmh 30.06 in1017.9 mb 0.00 in0.0 mm 0.00 in/hr0.0 mm/hr 0.00 in0.0 mm
12:35 AM 61.9°F16.6°C 59.2°F15.1°C 91% 5.5 mph NW8.9 kmh NW 10.7 mph17.2 kmh 30.06 in1017.9 mb 0.00 in0.0 mm 0.00 in/hr0.0 mm/hr 0.00 in0.0 mm
12:25 AM 62.1°F16.7°C 59.4°F15.2°C 91% 5.9 mph NW9.5 kmh NW 10.5 mph16.9 kmh 30.06 in1017.9 mb 0.00 in0.0 mm 0.00 in/hr0.0 mm/hr 0.00 in0.0 mm
12:15 AM 61.9°F16.6°C 59.2°F15.1°C 91% 6.9 mph NW11.1 kmh NW 11.3 mph18.2 kmh 30.06 in1017.9 mb 0.00 in0.0 mm 0.00 in/hr0.0 mm/hr 0.00 in0.0 mm
12:05 AM 61.9°F16.6°C 59.2°F15.1°C 91% 5.4 mph NW8.7 kmh NW 9.9 mph15.9 kmh 30.06 in1017.9 mb 0.00 in0.0 mm 0.00 in/hr0.0 mm/hr 0.00 in0.0 mm